createdAt,value
2018-06-05T00:02:28.093Z,75.62
2018-06-05T00:04:56.188Z,75.71
2018-06-05T00:07:24.288Z,76.35
2018-06-05T00:09:52.401Z,76.01
2018-06-05T00:12:20.471Z,75.76
2018-06-05T00:14:48.844Z,75.95
2018-06-05T00:17:16.900Z,76.12
2018-06-05T00:19:44.954Z,76.55
2018-06-05T00:22:13.015Z,76.31
2018-06-05T00:24:41.908Z,75.68
2018-06-05T00:27:10.283Z,76.72
2018-06-05T00:29:38.387Z,76.24
2018-06-05T00:32:06.618Z,76.13
2018-06-05T00:34:34.731Z,75.70
2018-06-05T00:37:02.852Z,75.36
2018-06-05T00:39:31.021Z,75.35
2018-06-05T00:41:59.189Z,75.31
2018-06-05T00:44:27.665Z,76.04
2018-06-05T00:46:55.832Z,76.03
2018-06-05T00:49:23.937Z,76.40
2018-06-05T00:52:03.336Z,76.18
2018-06-05T00:54:31.597Z,76.34
2018-06-05T00:56:59.873Z,76.45
2018-06-05T00:59:28.050Z,76.27
2018-06-05T01:01:56.135Z,76.72
2018-06-05T01:04:24.162Z,76.56
2018-06-05T01:06:52.204Z,76.52
2018-06-05T01:09:20.279Z,76.23
2018-06-05T01:11:48.331Z,75.90
2018-06-05T01:14:16.439Z,75.77
2018-06-05T01:16:44.507Z,76.25
2018-06-05T01:19:12.552Z,75.69
2018-06-05T01:21:40.583Z,75.20
2018-06-05T01:24:08.789Z,75.45
2018-06-05T01:26:36.867Z,75.26
2018-06-05T01:29:05.064Z,75.01
2018-06-05T01:31:33.318Z,75.18
2018-06-05T01:34:09.292Z,74.91
2018-06-05T01:36:37.335Z,74.78
2018-06-05T01:39:08.501Z,74.63
2018-06-05T01:41:36.978Z,74.55
2018-06-05T01:44:05.155Z,74.54
2018-06-05T01:46:33.187Z,74.76
2018-06-05T01:49:01.223Z,74.70
2018-06-05T01:51:29.276Z,74.68
2018-06-05T01:53:57.323Z,74.66
2018-06-05T01:56:25.346Z,75.02
2018-06-05T01:58:53.411Z,74.81
2018-06-05T02:01:21.467Z,75.34
2018-06-05T02:03:49.479Z,75.52
2018-06-05T02:06:17.521Z,75.65
2018-06-05T02:08:45.900Z,75.30
2018-06-05T02:11:13.985Z,75.15
2018-06-05T02:13:42.047Z,75.56
2018-06-05T02:16:10.183Z,75.19
2018-06-05T02:18:38.304Z,75.17
2018-06-05T02:21:06.453Z,74.99
2018-06-05T02:23:34.641Z,74.85
2018-06-05T02:26:02.763Z,74.47
2018-06-05T02:28:30.952Z,73.96
2018-06-05T02:30:59.221Z,73.64
2018-06-05T02:33:27.375Z,73.73
2018-06-05T02:35:55.504Z,73.92
2018-06-05T02:38:23.556Z,73.50
2018-06-05T02:40:53.060Z,73.94
2018-06-05T02:43:21.527Z,74.39
2018-06-05T02:45:50.168Z,74.12
2018-06-05T02:48:18.232Z,74.43
2018-06-05T02:50:46.295Z,74.36
2018-06-05T02:53:14.344Z,74.31
2018-06-05T02:55:42.389Z,74.45
2018-06-05T02:58:10.407Z,74.66
2018-06-05T03:00:38.450Z,74.32
2018-06-05T03:03:06.507Z,74.01
2018-06-05T03:05:34.555Z,73.96
2018-06-05T03:08:02.607Z,74.35
2018-06-05T03:10:30.650Z,74.57
2018-06-05T03:12:58.690Z,74.64
2018-06-05T03:15:26.716Z,74.73
2018-06-05T03:17:54.788Z,74.36
2018-06-05T03:20:22.806Z,74.72
2018-06-05T03:22:50.862Z,74.65
2018-06-05T03:25:18.898Z,74.81
2018-06-05T03:27:46.952Z,74.70
2018-06-05T03:30:15.255Z,74.58
2018-06-05T03:32:43.324Z,74.30
2018-06-05T03:35:11.352Z,74.24
2018-06-05T03:37:39.435Z,74.09
2018-06-05T03:40:07.804Z,74.30
2018-06-05T03:42:35.937Z,74.05
2018-06-05T03:45:04.044Z,74.31
2018-06-05T03:47:32.227Z,74.79
2018-06-05T03:50:00.409Z,74.48
2018-06-05T03:52:28.646Z,75.16
2018-06-05T03:54:56.907Z,75.00
2018-06-05T03:57:24.931Z,74.93
2018-06-05T03:59:52.960Z,75.03
2018-06-05T04:02:21.001Z,74.79
2018-06-05T04:04:49.030Z,74.81
2018-06-05T04:07:17.071Z,75.29
2018-06-05T04:09:45.107Z,74.85
2018-06-05T04:12:13.134Z,75.44
2018-06-05T04:14:41.180Z,75.27
2018-06-05T04:17:09.223Z,75.43
2018-06-05T04:19:37.268Z,75.93
2018-06-05T04:22:05.307Z,76.21
2018-06-05T04:24:33.348Z,75.94
2018-06-05T04:27:01.724Z,75.07
2018-06-05T04:29:29.743Z,75.16
2018-06-05T04:31:57.774Z,75.30
2018-06-05T04:34:25.811Z,75.35
2018-06-05T04:36:53.840Z,74.95
2018-06-05T04:39:21.886Z,75.22
2018-06-05T04:41:49.916Z,74.80
2018-06-05T04:44:17.938Z,75.30
2018-06-05T04:46:45.995Z,75.05
2018-06-05T04:49:14.035Z,75.03
2018-06-05T04:51:42.100Z,75.15
2018-06-05T04:54:10.183Z,75.25
2018-06-05T04:56:38.541Z,75.51
2018-06-05T04:59:06.702Z,75.50
2018-06-05T05:01:34.807Z,75.22
2018-06-05T05:04:02.989Z,75.12
2018-06-05T05:06:31.156Z,75.13
2018-06-05T05:08:59.321Z,75.03
2018-06-05T05:11:27.481Z,75.69
2018-06-05T05:13:55.580Z,75.15
2018-06-05T05:16:23.766Z,75.23
2018-06-05T05:18:51.976Z,74.88
2018-06-05T05:21:20.020Z,75.35
2018-06-05T05:23:48.066Z,75.20
2018-06-05T05:26:16.090Z,75.12
2018-06-05T05:28:44.147Z,74.77
2018-06-05T05:31:12.194Z,74.91
2018-06-05T05:33:40.267Z,74.99
2018-06-05T05:36:08.295Z,74.59
2018-06-05T05:38:36.340Z,74.13
2018-06-05T05:41:04.388Z,74.15
2018-06-05T05:43:32.435Z,74.08
2018-06-05T05:46:00.512Z,74.08
2018-06-05T05:48:28.537Z,74.20
2018-06-05T05:50:56.579Z,74.03
2018-06-05T05:53:24.619Z,73.38
2018-06-05T05:55:52.984Z,73.49
2018-06-05T05:58:21.028Z,73.56
2018-06-05T06:00:49.079Z,73.14
2018-06-05T06:03:17.176Z,73.55
2018-06-05T06:05:45.286Z,73.63
2018-06-05T06:08:13.355Z,73.14
2018-06-05T06:10:41.465Z,72.82
2018-06-05T06:13:09.532Z,72.64
2018-06-05T06:15:37.628Z,72.68
2018-06-05T06:18:05.744Z,72.16
2018-06-05T06:20:33.881Z,72.17
2018-06-05T06:23:01.923Z,72.10
2018-06-05T06:25:30.517Z,72.18
2018-06-05T06:27:58.563Z,71.67
2018-06-05T06:30:26.615Z,71.38
2018-06-05T06:32:54.699Z,71.04
2018-06-05T06:35:22.784Z,71.17
2018-06-05T06:37:50.861Z,71.15
2018-06-05T06:40:18.901Z,71.04
2018-06-05T06:42:46.939Z,70.62
2018-06-05T06:45:15.003Z,69.83
2018-06-05T06:47:43.048Z,69.91
2018-06-05T06:50:11.343Z,70.54
2018-06-05T06:52:39.399Z,69.87
2018-06-05T06:55:07.435Z,69.74
2018-06-05T06:57:35.542Z,69.33
2018-06-05T07:00:03.678Z,69.52
2018-06-05T07:02:31.811Z,69.73
2018-06-05T07:04:59.863Z,69.82
2018-06-05T07:07:28.027Z,70.01
2018-06-05T07:09:56.092Z,70.03
2018-06-05T07:12:27.176Z,69.77
2018-06-05T07:14:55.244Z,69.69
2018-06-05T07:17:23.311Z,70.26
2018-06-05T07:19:51.360Z,70.12
2018-06-05T07:22:19.463Z,70.67
2018-06-05T07:24:47.575Z,70.64
2018-06-05T07:27:15.624Z,70.40
2018-06-05T07:29:43.649Z,70.20
2018-06-05T07:32:11.695Z,70.35
2018-06-05T07:34:39.750Z,69.88
2018-06-05T07:37:07.771Z,69.99
2018-06-05T07:39:35.827Z,69.72
2018-06-05T07:42:03.868Z,69.52
2018-06-05T07:44:31.940Z,69.24
2018-06-05T07:46:59.991Z,68.81
2018-06-05T07:49:28.074Z,70.20
2018-06-05T07:51:56.087Z,70.09
2018-06-05T07:54:24.231Z,69.89
2018-06-05T07:56:52.279Z,69.27
2018-06-05T07:59:20.314Z,68.68
2018-06-05T08:01:48.558Z,68.74
2018-06-05T08:04:16.640Z,68.57
2018-06-05T08:06:44.692Z,67.89
2018-06-05T08:09:12.932Z,67.04
2018-06-05T08:11:41.147Z,67.62
2018-06-05T08:14:09.422Z,67.29
2018-06-05T08:16:37.471Z,67.09
2018-06-05T08:19:05.539Z,66.89
2018-06-05T08:21:33.587Z,66.84
2018-06-05T08:24:01.671Z,66.68
2018-06-05T08:26:42.473Z,66.79
2018-06-05T08:29:10.541Z,66.21
2018-06-05T08:31:38.919Z,66.07
2018-06-05T08:34:07.014Z,65.74
2018-06-05T08:36:35.168Z,65.67
2018-06-05T08:39:03.448Z,65.24
2018-06-05T08:41:31.799Z,64.98
2018-06-05T08:44:00.097Z,65.51
2018-06-05T08:46:28.439Z,65.01
2018-06-05T08:48:56.520Z,65.11
2018-06-05T08:51:24.791Z,65.47
2018-06-05T08:53:52.924Z,65.31
2018-06-05T08:56:20.991Z,65.01
2018-06-05T08:58:49.051Z,64.87
2018-06-05T09:01:17.123Z,64.65
2018-06-05T09:03:45.180Z,64.61
2018-06-05T09:06:13.257Z,65.16
2018-06-05T09:08:41.319Z,65.72
2018-06-05T09:11:09.404Z,65.32
2018-06-05T09:13:37.536Z,65.34
2018-06-05T09:16:05.664Z,64.93
2018-06-05T09:18:33.816Z,64.01
2018-06-05T09:21:02.081Z,64.20
2018-06-05T09:23:30.729Z,63.65
2018-06-05T09:25:58.980Z,63.29
2018-06-05T09:28:27.077Z,64.53
2018-06-05T09:30:55.285Z,63.86
2018-06-05T09:33:23.399Z,64.01
2018-06-05T09:35:51.519Z,64.32
2018-06-05T09:38:19.572Z,64.42
2018-06-05T09:40:47.623Z,63.99
2018-06-05T09:43:15.696Z,64.01
2018-06-05T09:45:43.739Z,63.61
2018-06-05T09:48:12.132Z,64.00
2018-06-05T09:50:44.376Z,63.80
2018-06-05T09:53:12.483Z,63.01
2018-06-05T09:55:40.605Z,63.27
2018-06-05T09:58:08.907Z,62.42
2018-06-05T10:00:42.354Z,62.30
2018-06-05T10:03:10.601Z,62.66
2018-06-05T10:05:38.684Z,63.48
2018-06-05T10:08:06.813Z,63.70
2018-06-05T10:10:34.931Z,63.57
2018-06-05T10:13:02.996Z,63.19
2018-06-05T10:15:31.047Z,63.05
2018-06-05T10:17:59.079Z,62.90
2018-06-05T10:20:27.132Z,63.22
2018-06-05T10:22:55.159Z,62.43
2018-06-05T10:25:23.196Z,62.67
2018-06-05T10:27:51.259Z,61.55
2018-06-05T10:30:19.272Z,61.59
2018-06-05T10:32:47.591Z,62.18
2018-06-05T10:35:15.627Z,60.66
2018-06-05T10:37:43.682Z,60.95
2018-06-05T10:40:12.218Z,60.81
2018-06-05T10:42:40.243Z,60.61
2018-06-05T10:45:08.384Z,60.58
2018-06-05T10:47:36.554Z,60.26
2018-06-05T10:50:04.684Z,60.19
2018-06-05T10:52:34.025Z,58.69
2018-06-05T10:55:02.334Z,59.12
2018-06-05T10:57:30.529Z,59.64
2018-06-05T10:59:59.024Z,58.97
2018-06-05T11:02:27.104Z,58.94
2018-06-05T11:04:55.241Z,59.02
2018-06-05T11:07:23.303Z,57.77
2018-06-05T11:09:51.363Z,56.33
2018-06-05T11:12:19.431Z,58.21
2018-06-05T11:14:47.469Z,57.87
2018-06-05T11:17:15.562Z,58.26
2018-06-05T11:19:43.612Z,57.21
2018-06-05T11:22:11.663Z,57.16
2018-06-05T11:24:39.712Z,57.53
2018-06-05T11:27:07.751Z,56.26
2018-06-05T11:29:35.794Z,56.99
2018-06-05T11:32:03.831Z,56.48
2018-06-05T11:34:31.886Z,57.42
2018-06-05T11:36:59.917Z,57.58
2018-06-05T11:39:27.960Z,56.25
2018-06-05T11:41:56.446Z,56.69
2018-06-05T11:44:24.489Z,56.10
2018-06-05T11:46:52.609Z,55.93
2018-06-05T11:49:20.655Z,54.36
2018-06-05T11:51:48.708Z,55.45
2018-06-05T11:54:16.815Z,55.16
2018-06-05T11:56:44.823Z,55.46
2018-06-05T11:59:12.852Z,54.84
2018-06-05T12:01:40.893Z,55.40
2018-06-05T12:04:08.911Z,54.80
2018-06-05T12:06:36.963Z,55.05
2018-06-05T12:09:07.264Z,53.38
2018-06-05T12:11:35.368Z,53.50
2018-06-05T12:14:03.667Z,54.30
2018-06-05T12:16:31.724Z,53.41
2018-06-05T12:18:59.772Z,53.81
2018-06-05T12:21:27.840Z,54.94
2018-06-05T12:23:55.898Z,54.43
2018-06-05T12:26:23.981Z,54.63
2018-06-05T12:28:52.014Z,55.99
2018-06-05T12:31:20.044Z,55.96
2018-06-05T12:33:48.099Z,55.67
2018-06-05T12:36:16.142Z,55.53
2018-06-05T12:38:44.213Z,55.47
2018-06-05T12:41:12.275Z,55.35
2018-06-05T12:43:40.344Z,55.45
2018-06-05T12:46:08.399Z,54.89
2018-06-05T12:48:36.452Z,55.51
2018-06-05T12:51:04.496Z,56.02
2018-06-05T12:53:32.526Z,55.78
2018-06-05T12:56:00.585Z,57.62
2018-06-05T12:58:28.836Z,57.01
2018-06-05T13:00:56.944Z,57.29
2018-06-05T13:03:25.036Z,58.44
2018-06-05T13:05:53.176Z,57.92
2018-06-05T13:08:21.259Z,57.94
2018-06-05T13:10:49.301Z,58.11
2018-06-05T13:13:17.363Z,58.01
2018-06-05T13:15:45.404Z,59.93
2018-06-05T13:18:13.429Z,59.32
2018-06-05T13:20:41.552Z,58.81
2018-06-05T13:23:09.692Z,58.19
2018-06-05T13:25:37.738Z,57.22
2018-06-05T13:28:06.025Z,57.60
2018-06-05T13:30:34.596Z,58.14
2018-06-05T13:33:02.783Z,58.68
2018-06-05T13:35:30.909Z,58.69
2018-06-05T13:37:59.074Z,58.82
2018-06-05T13:40:27.187Z,59.56
2018-06-05T13:42:55.724Z,59.20
2018-06-05T13:45:23.775Z,59.06
2018-06-05T13:47:51.810Z,58.33
2018-06-05T13:50:19.880Z,58.50
2018-06-05T13:52:47.940Z,58.42
2018-06-05T13:55:15.979Z,58.28
2018-06-05T13:57:44.054Z,57.97
2018-06-05T14:00:12.088Z,57.56
2018-06-05T14:02:40.152Z,57.72
2018-06-05T14:05:08.240Z,57.14
2018-06-05T14:07:36.271Z,57.30
2018-06-05T14:10:04.307Z,57.02
2018-06-05T14:12:32.348Z,56.55
2018-06-05T14:15:00.376Z,57.29
2018-06-05T14:17:28.443Z,56.27
2018-06-05T14:19:56.467Z,56.60
2018-06-05T14:22:24.516Z,55.82
2018-06-05T14:24:52.546Z,56.74
2018-06-05T14:27:20.575Z,56.72
2018-06-05T14:29:48.886Z,55.17
2018-06-05T14:32:16.947Z,56.85
2018-06-05T14:34:45.000Z,56.21
2018-06-05T14:37:13.039Z,56.66
2018-06-05T14:39:41.081Z,55.90
2018-06-05T14:42:09.108Z,56.30
2018-06-05T14:44:37.139Z,55.85
2018-06-05T14:47:05.167Z,54.59
2018-06-05T14:49:33.447Z,55.51
2018-06-05T14:52:01.472Z,55.11
2018-06-05T14:54:30.121Z,54.34
2018-06-05T14:56:58.239Z,55.63
2018-06-05T14:59:26.287Z,56.15
2018-06-05T15:01:54.345Z,56.17
2018-06-05T15:04:22.379Z,56.38
2018-06-05T15:06:50.628Z,57.04
2018-06-05T15:09:18.677Z,56.63
2018-06-05T15:11:46.905Z,56.79
2018-06-05T15:14:15.705Z,55.27
2018-06-05T15:16:43.784Z,56.45
2018-06-05T15:19:13.891Z,56.39
2018-06-05T15:21:41.938Z,56.92
2018-06-05T15:24:10.180Z,57.72
2018-06-05T15:26:38.301Z,57.02
2018-06-05T15:29:07.625Z,57.59
2018-06-05T15:31:35.742Z,57.13
2018-06-05T15:34:04.103Z,57.45
2018-06-05T15:36:32.365Z,57.61
2018-06-05T15:39:00.544Z,57.11
2018-06-05T15:41:29.145Z,57.85
2018-06-05T15:43:57.373Z,57.76
2018-06-05T15:46:25.488Z,57.66
2018-06-05T15:48:53.571Z,57.42
2018-06-05T15:51:22.203Z,56.32
2018-06-05T15:53:50.376Z,56.75
2018-06-05T15:56:18.432Z,57.74
2018-06-05T15:58:46.497Z,58.29
2018-06-05T16:01:15.032Z,58.26
2018-06-05T16:03:43.309Z,57.92
2018-06-05T16:06:11.384Z,58.39
2018-06-05T16:08:39.548Z,57.37
2018-06-05T16:11:07.751Z,57.81
2018-06-05T16:13:35.855Z,58.22
2018-06-05T16:16:04.280Z,57.19
2018-06-05T16:18:33.376Z,56.71
2018-06-05T16:21:02.391Z,57.10
2018-06-05T16:23:30.918Z,55.97
2018-06-05T16:25:59.142Z,55.95
2018-06-05T16:28:28.870Z,56.19
2018-06-05T16:30:56.954Z,55.31
2018-06-05T16:33:25.327Z,55.32
2018-06-05T16:35:53.355Z,55.26
2018-06-05T16:38:21.380Z,55.13
2018-06-05T16:40:49.422Z,54.89
2018-06-05T16:43:17.459Z,55.54
2018-06-05T16:45:45.506Z,55.53
2018-06-05T16:48:13.564Z,55.43
2018-06-05T16:50:41.595Z,54.85
2018-06-05T16:53:09.636Z,54.73
2018-06-05T16:55:37.805Z,55.49
2018-06-05T16:58:05.927Z,55.46
2018-06-05T17:00:34.073Z,55.77
2018-06-05T17:03:02.417Z,54.92
2018-06-05T17:05:30.667Z,55.25
2018-06-05T17:07:58.874Z,55.92
2018-06-05T17:10:26.917Z,55.67
2018-06-05T17:12:55.072Z,55.90
2018-06-05T17:15:23.127Z,55.60
2018-06-05T17:17:51.208Z,55.79
2018-06-05T17:20:19.250Z,56.14
2018-06-05T17:22:47.340Z,55.35
2018-06-05T17:25:15.380Z,55.35
2018-06-05T17:27:43.429Z,56.17
2018-06-05T17:30:11.967Z,55.24
2018-06-05T17:32:40.277Z,56.27
2018-06-05T17:35:08.410Z,56.18
2018-06-05T17:37:36.521Z,56.15
2018-06-05T17:40:04.686Z,55.49
2018-06-05T17:42:32.880Z,55.44
2018-06-05T17:45:01.128Z,55.80
2018-06-05T17:47:29.308Z,55.21
2018-06-05T17:49:57.447Z,55.77
2018-06-05T17:52:25.638Z,55.62
2018-06-05T17:54:53.738Z,55.48
2018-06-05T17:57:21.887Z,55.48
2018-06-05T17:59:49.922Z,55.37
2018-06-05T18:02:17.999Z,54.88
2018-06-05T18:04:46.036Z,55.48
2018-06-05T18:07:14.089Z,55.58
2018-06-05T18:09:42.100Z,55.89
2018-06-05T18:12:10.175Z,55.62
2018-06-05T18:14:38.224Z,55.38
2018-06-05T18:17:06.806Z,55.47
2018-06-05T18:19:35.547Z,54.62
2018-06-05T18:22:03.948Z,55.22
2018-06-05T18:24:32.577Z,55.23
2018-06-05T18:27:01.292Z,54.91
2018-06-05T18:29:30.264Z,55.11
2018-06-05T18:31:59.617Z,54.96
2018-06-05T18:34:27.792Z,55.59
2018-06-05T18:36:55.875Z,55.84
2018-06-05T18:39:24.199Z,55.48
2018-06-05T18:41:52.604Z,55.89
2018-06-05T18:44:21.313Z,56.12
2018-06-05T18:46:49.964Z,56.06
2018-06-05T18:49:19.689Z,56.21
2018-06-05T18:51:48.382Z,56.88
2018-06-05T18:54:17.107Z,57.11
2018-06-05T18:56:45.905Z,56.95
2018-06-05T19:01:41.889Z,57.24
2018-06-05T19:04:10.571Z,57.71
2018-06-05T19:06:39.125Z,58.01
2018-06-05T19:09:09.211Z,58.32
2018-06-05T19:11:39.220Z,58.10
2018-06-05T19:14:08.462Z,58.43
2018-06-05T19:16:36.938Z,58.36
2018-06-05T19:19:05.536Z,58.96
2018-06-05T19:21:33.796Z,59.25
2018-06-05T19:24:01.876Z,59.02
2018-06-05T19:26:29.915Z,59.25
2018-06-05T19:28:58.105Z,59.21
2018-06-05T19:31:26.703Z,59.72
2018-06-05T19:33:54.843Z,59.58
2018-06-05T19:36:22.894Z,59.82
2018-06-05T19:38:50.983Z,59.77
2018-06-05T19:41:19.029Z,60.47
2018-06-05T19:43:50.275Z,60.68
2018-06-05T19:46:18.353Z,61.01
2018-06-05T19:48:48.145Z,60.72
2018-06-05T19:51:16.528Z,61.13
2018-06-05T19:53:44.563Z,61.44
2018-06-05T19:56:15.964Z,61.73
2018-06-05T19:58:44.159Z,61.97
2018-06-05T20:01:12.353Z,62.38
2018-06-05T20:03:41.622Z,62.75
2018-06-05T20:06:14.494Z,62.93
2018-06-05T20:08:42.644Z,64.07
2018-06-05T20:11:10.693Z,63.87
2018-06-05T20:13:38.961Z,65.13
2018-06-05T20:16:07.169Z,65.06
2018-06-05T20:18:35.556Z,64.84
2018-06-05T20:21:04.552Z,65.19
2018-06-05T20:23:32.933Z,66.45
2018-06-05T20:26:01.261Z,66.75
2018-06-05T20:28:29.601Z,67.51
2018-06-05T20:30:57.738Z,67.20
2018-06-05T20:33:26.151Z,68.46
2018-06-05T20:35:54.255Z,68.39
2018-06-05T20:38:22.321Z,68.69
2018-06-05T20:40:51.452Z,68.45
2018-06-05T20:43:19.498Z,68.96
2018-06-05T20:45:47.680Z,69.21
2018-06-05T20:48:15.788Z,69.76
2018-06-05T20:50:43.856Z,69.92
2018-06-05T20:53:12.192Z,70.42
2018-06-05T20:55:40.255Z,70.53
2018-06-05T20:58:08.335Z,70.74
2018-06-05T21:00:36.506Z,71.06
2018-06-05T21:03:05.183Z,71.33
2018-06-05T21:05:33.633Z,72.37
2018-06-05T21:08:01.872Z,73.84
2018-06-05T21:10:30.058Z,73.43
2018-06-05T21:12:58.615Z,73.43
2018-06-05T21:15:26.747Z,73.31
2018-06-05T21:17:54.844Z,73.77
2018-06-05T21:20:22.935Z,73.24
2018-06-05T21:22:50.995Z,74.38
2018-06-05T21:25:19.484Z,75.62
2018-06-05T21:27:47.545Z,74.96
2018-06-05T21:30:15.586Z,75.03
2018-06-05T21:32:43.643Z,74.95
2018-06-05T21:35:11.756Z,75.46
2018-06-05T21:37:39.811Z,75.09
2018-06-05T21:40:07.860Z,75.67
2018-06-05T21:42:35.972Z,75.85
2018-06-05T21:45:04.003Z,75.40
2018-06-05T21:47:33.214Z,76.25
2018-06-05T21:50:01.244Z,76.47
2018-06-05T21:52:29.295Z,75.66
2018-06-05T21:54:57.332Z,76.17
2018-06-05T21:57:25.360Z,77.25
2018-06-05T21:59:53.427Z,77.24
2018-06-05T22:02:21.487Z,77.05
2018-06-05T22:04:49.539Z,76.84
2018-06-05T22:07:17.568Z,76.83
2018-06-05T22:09:45.615Z,76.46
2018-06-05T22:12:13.643Z,76.80
2018-06-05T22:14:41.710Z,77.09
2018-06-05T22:17:09.738Z,76.82
2018-06-05T22:19:37.754Z,77.58
2018-06-05T22:22:05.804Z,78.66
2018-06-05T22:24:33.833Z,78.47
2018-06-05T22:27:01.883Z,78.44
2018-06-05T22:29:29.903Z,78.01
2018-06-05T22:31:57.951Z,77.62
2018-06-05T22:34:26.011Z,78.09
2018-06-05T22:36:54.053Z,78.18
2018-06-05T22:39:22.254Z,78.09
2018-06-05T22:41:50.284Z,78.38
2018-06-05T22:44:18.483Z,78.18
2018-06-05T22:46:47.247Z,78.38
2018-06-05T22:49:15.287Z,78.67
2018-06-05T22:51:43.339Z,78.37
2018-06-05T22:54:11.407Z,78.72
2018-06-05T22:56:39.460Z,78.04
2018-06-05T22:59:07.487Z,78.53
2018-06-05T23:01:35.551Z,78.62
2018-06-05T23:04:03.604Z,78.19
2018-06-05T23:06:31.678Z,78.30
2018-06-05T23:08:59.740Z,78.93
2018-06-05T23:11:27.796Z,79.29
2018-06-05T23:13:55.852Z,78.83
2018-06-05T23:16:24.235Z,79.97
2018-06-05T23:18:52.295Z,79.29
2018-06-05T23:21:20.325Z,79.26
2018-06-05T23:23:48.433Z,79.33
2018-06-05T23:26:16.511Z,79.00
2018-06-05T23:28:44.583Z,79.34
2018-06-05T23:31:12.628Z,79.24
2018-06-05T23:33:40.665Z,78.75
2018-06-05T23:36:08.744Z,79.26
2018-06-05T23:38:36.827Z,79.32
2018-06-05T23:41:04.880Z,78.89
2018-06-05T23:43:33.111Z,79.52
2018-06-05T23:46:01.385Z,78.98
2018-06-05T23:48:29.473Z,79.35
2018-06-05T23:50:57.569Z,79.55
2018-06-05T23:53:25.700Z,78.91
2018-06-05T23:55:53.773Z,78.70
2018-06-05T23:58:21.848Z,79.15
